createdAt,value
2022-11-12T00:01:22.579Z,3.29
2022-11-12T00:05:35.353Z,3.16
2022-11-12T00:09:47.689Z,3.29
2022-11-12T00:13:59.943Z,3.35
2022-11-12T00:18:12.285Z,3.25
2022-11-12T00:22:24.559Z,3.38
2022-11-12T00:26:36.875Z,3.28
2022-11-12T00:30:49.147Z,3.11
2022-11-12T00:35:13.464Z,3.25
2022-11-12T00:39:26.363Z,3.12
2022-11-12T00:43:38.655Z,2.96
2022-11-12T00:47:50.947Z,3.11
2022-11-12T00:52:03.229Z,2.92
2022-11-12T00:56:15.818Z,3.15
2022-11-12T01:00:29.331Z,2.85
2022-11-12T01:04:41.615Z,2.91
2022-11-12T01:08:55.751Z,3.26
2022-11-12T01:13:08.017Z,3.05
2022-11-12T01:17:20.303Z,3.09
2022-11-12T01:21:34.292Z,3.24
2022-11-12T01:25:46.586Z,3.36
2022-11-12T01:29:58.890Z,3.28
2022-11-12T01:34:11.285Z,3.36
2022-11-12T01:44:21.296Z,3.43
2022-11-12T01:48:50.790Z,3.46
2022-11-12T01:53:08.472Z,3.45
2022-11-12T01:57:35.141Z,3.52
2022-11-12T02:01:50.450Z,3.48
2022-11-12T02:06:14.232Z,3.36
2022-11-12T02:10:27.471Z,3.54
2022-11-12T02:14:39.714Z,3.61
2022-11-12T02:19:01.372Z,3.60
2022-11-12T02:23:13.609Z,3.69
2022-11-12T02:27:26.211Z,3.79
2022-11-12T02:31:38.479Z,3.89
2022-11-12T02:35:50.708Z,3.77
2022-11-12T02:40:02.932Z,3.86
2022-11-12T02:44:15.191Z,3.46
2022-11-12T02:48:27.729Z,3.54
2022-11-12T02:52:43.060Z,3.52
2022-11-12T02:56:55.310Z,3.52
2022-11-12T03:01:07.650Z,3.52
2022-11-12T03:05:19.894Z,3.58
2022-11-12T03:09:32.240Z,3.59
2022-11-12T03:13:44.632Z,3.56
2022-11-12T03:17:59.217Z,3.56
2022-11-12T03:22:11.468Z,3.63
2022-11-12T03:26:23.737Z,3.67
2022-11-12T03:30:39.219Z,3.76
2022-11-12T03:34:55.282Z,3.63
2022-11-12T03:39:08.022Z,3.83
2022-11-12T03:43:20.265Z,3.71
2022-11-12T03:47:33.164Z,3.69
2022-11-12T03:51:45.516Z,3.45
2022-11-12T03:55:57.755Z,3.66
2022-11-12T04:00:11.901Z,3.56
2022-11-12T04:04:44.786Z,3.60
2022-11-12T04:08:57.034Z,3.36
2022-11-12T04:13:27.892Z,2.98
2022-11-12T04:17:58.859Z,3.22
2022-11-12T04:22:12.613Z,3.12
2022-11-12T04:26:24.843Z,2.78
2022-11-12T04:30:37.119Z,2.94
2022-11-12T04:34:49.600Z,3.02
2022-11-12T04:39:02.022Z,3.01
2022-11-12T04:43:36.934Z,2.98
2022-11-12T04:47:49.162Z,2.97
2022-11-12T04:52:07.178Z,2.84
2022-11-12T04:56:19.392Z,2.60
2022-11-12T05:00:32.290Z,2.72
2022-11-12T05:04:44.993Z,2.71
2022-11-12T05:08:57.353Z,2.72
2022-11-12T05:13:09.879Z,2.62
2022-11-12T05:17:32.132Z,2.76
2022-11-12T05:22:03.441Z,2.65
2022-11-12T05:26:15.679Z,2.93
2022-11-12T05:30:27.950Z,2.49
2022-11-12T05:34:40.246Z,2.74
2022-11-12T05:38:52.657Z,2.72
2022-11-12T05:43:04.896Z,2.90
2022-11-12T05:47:17.558Z,2.61
2022-11-12T05:51:30.005Z,2.54
2022-11-12T05:55:42.251Z,2.45
2022-11-12T05:59:54.480Z,2.58
2022-11-12T06:04:06.716Z,2.66
2022-11-12T06:08:18.995Z,2.69
2022-11-12T06:12:32.030Z,2.68
2022-11-12T06:16:44.288Z,2.39
2022-11-12T06:21:23.720Z,2.61
2022-11-12T06:25:45.987Z,2.53
2022-11-12T06:30:00.277Z,2.75
2022-11-12T06:34:13.231Z,2.49
2022-11-12T06:38:25.703Z,2.81
2022-11-12T06:42:38.174Z,2.77
2022-11-12T06:46:50.445Z,2.83
2022-11-12T06:51:12.327Z,2.83
2022-11-12T06:55:24.570Z,2.79
2022-11-12T06:59:36.831Z,3.03
2022-11-12T07:03:52.987Z,2.90
2022-11-12T07:08:06.806Z,2.98
2022-11-12T07:12:19.046Z,2.89
2022-11-12T07:16:31.282Z,3.04
2022-11-12T07:20:43.503Z,3.16
2022-11-12T07:24:56.118Z,3.51
2022-11-12T07:29:08.439Z,3.76
2022-11-12T07:33:20.702Z,3.99
2022-11-12T07:37:34.957Z,4.31
2022-11-12T07:41:47.246Z,4.21
2022-11-12T07:46:10.324Z,4.23
2022-11-12T07:50:23.171Z,4.01
2022-11-12T07:54:35.404Z,3.98
2022-11-12T07:58:48.213Z,4.59
2022-11-12T08:03:02.162Z,4.44
2022-11-12T08:07:14.460Z,4.18
2022-11-12T08:11:26.967Z,4.46
2022-11-12T08:15:39.288Z,4.86
2022-11-12T08:19:55.938Z,5.19
2022-11-12T08:24:09.767Z,5.36
2022-11-12T08:28:21.984Z,5.07
2022-11-12T08:32:34.358Z,5.52
2022-11-12T08:36:46.591Z,5.73
2022-11-12T08:41:06.275Z,5.51
2022-11-12T08:45:18.502Z,5.44
2022-11-12T08:49:30.947Z,5.20
2022-11-12T08:53:43.207Z,5.36
2022-11-12T08:57:55.894Z,5.91
2022-11-12T09:02:13.354Z,6.03
2022-11-12T09:06:25.745Z,6.27
2022-11-12T09:10:38.794Z,5.93
2022-11-12T09:14:53.479Z,5.28
2022-11-12T09:19:08.505Z,5.78
2022-11-12T09:23:20.754Z,6.36
2022-11-12T09:27:33.046Z,6.68
2022-11-12T09:31:45.464Z,6.96
2022-11-12T09:36:01.869Z,7.15
2022-11-12T09:40:19.994Z,7.41
2022-11-12T09:44:36.781Z,7.80
2022-11-12T09:48:57.323Z,7.54
2022-11-12T09:53:33.987Z,7.89
2022-11-12T09:57:46.370Z,7.80
2022-11-12T10:02:04.766Z,7.29
2022-11-12T10:06:28.666Z,7.44
2022-11-12T10:10:49.405Z,7.19
2022-11-12T10:15:26.292Z,6.97
2022-11-12T10:20:17.921Z,6.84
2022-11-12T10:24:35.563Z,6.41
2022-11-12T10:29:03.535Z,6.89
2022-11-12T10:33:16.280Z,6.82
2022-11-12T10:37:40.029Z,7.58
2022-11-12T10:42:08.660Z,7.33
2022-11-12T10:46:27.599Z,7.19
2022-11-12T10:50:45.922Z,7.42
2022-11-12T10:55:19.721Z,7.28
2022-11-12T10:59:33.535Z,7.92
2022-11-12T11:03:49.091Z,7.96
2022-11-12T11:08:02.676Z,8.13
2022-11-12T11:12:33.441Z,8.54
2022-11-12T11:16:53.933Z,9.10
2022-11-12T11:21:23.596Z,8.87
2022-11-12T11:25:37.939Z,8.15
2022-11-12T11:30:08.923Z,8.70
2022-11-12T11:34:36.277Z,8.89
2022-11-12T11:39:04.582Z,8.83
2022-11-12T11:43:37.266Z,8.74
2022-11-12T11:48:01.547Z,8.45
2022-11-12T11:52:42.111Z,8.09
2022-11-12T11:56:59.952Z,8.23
2022-11-12T12:01:40.936Z,8.06
2022-11-12T12:06:20.733Z,8.17
2022-11-12T12:15:37.706Z,8.38
2022-11-12T12:20:22.995Z,8.57
2022-11-12T12:24:45.685Z,8.50
2022-11-12T12:29:09.175Z,9.07
2022-11-12T12:33:35.111Z,8.82
2022-11-12T12:37:57.735Z,8.78
2022-11-12T12:42:19.384Z,8.68
2022-11-12T12:46:38.229Z,8.84
2022-11-12T12:50:52.339Z,8.71
2022-11-12T12:55:04.919Z,8.46
2022-11-12T12:59:22.629Z,8.21
2022-11-12T13:03:47.036Z,8.18
2022-11-12T13:08:13.126Z,8.40
2022-11-12T13:13:04.970Z,8.23
2022-11-12T13:17:44.695Z,8.16
2022-11-12T13:22:19.085Z,8.41
2022-11-12T13:26:40.665Z,8.26
2022-11-12T13:30:58.068Z,8.37
2022-11-12T13:35:24.516Z,8.01
2022-11-12T13:39:37.243Z,8.18
2022-11-12T13:43:50.479Z,7.94
2022-11-12T13:48:07.967Z,7.74
2022-11-12T13:52:20.794Z,7.84
2022-11-12T13:56:37.862Z,7.73
2022-11-12T14:00:56.416Z,7.75
2022-11-12T14:05:17.449Z,7.75
2022-11-12T14:10:10.055Z,7.34
2022-11-12T14:14:22.304Z,7.15
2022-11-12T14:19:19.619Z,7.17
2022-11-12T14:23:32.109Z,7.03
2022-11-12T14:27:44.617Z,6.91
2022-11-12T14:32:02.863Z,7.05
2022-11-12T14:36:19.159Z,7.23
2022-11-12T14:40:36.971Z,7.35
2022-11-12T14:44:49.311Z,7.49
2022-11-12T14:49:45.207Z,7.07
2022-11-12T14:54:06.135Z,7.23
2022-11-12T14:58:20.985Z,7.02
2022-11-12T15:02:50.303Z,6.80
2022-11-12T15:07:07.063Z,6.69
2022-11-12T15:11:26.629Z,6.40
2022-11-12T15:15:51.054Z,6.34
2022-11-12T15:20:15.041Z,6.27
2022-11-12T15:24:33.823Z,6.40
2022-11-12T15:29:30.367Z,6.54
2022-11-12T15:33:42.710Z,6.50
2022-11-12T15:37:55.023Z,6.55
2022-11-12T15:42:34.798Z,6.45
2022-11-12T15:46:47.250Z,6.40
2022-11-12T15:51:00.016Z,6.46
2022-11-12T15:55:21.124Z,6.38
2022-11-12T15:59:33.741Z,6.28
2022-11-12T16:03:46.293Z,6.30
2022-11-12T16:07:58.571Z,6.17
2022-11-12T16:12:15.069Z,6.16
2022-11-12T16:16:31.776Z,6.12
2022-11-12T16:20:44.090Z,6.10
2022-11-12T16:24:56.357Z,6.05
2022-11-12T16:29:14.445Z,5.95
2022-11-12T16:33:26.977Z,6.19
2022-11-12T16:37:39.745Z,6.06
2022-11-12T16:41:52.044Z,6.09
2022-11-12T16:46:14.836Z,6.18
2022-11-12T16:50:29.042Z,6.04
2022-11-12T16:54:41.541Z,5.67
2022-11-12T16:58:53.889Z,5.88
2022-11-12T17:03:06.127Z,5.74
2022-11-12T17:07:18.466Z,5.79
2022-11-12T17:11:31.484Z,6.09
2022-11-12T17:15:43.802Z,6.12
2022-11-12T17:19:57.508Z,6.19
2022-11-12T17:24:10.576Z,6.15
2022-11-12T17:28:22.851Z,6.19
2022-11-12T17:32:35.111Z,6.21
2022-11-12T17:36:47.411Z,6.27
2022-11-12T17:40:59.861Z,6.03
2022-11-12T17:45:12.347Z,5.87
2022-11-12T17:49:24.698Z,5.81
2022-11-12T17:53:37.389Z,5.69
2022-11-12T17:57:49.803Z,5.77
2022-11-12T18:02:02.053Z,5.86
2022-11-12T18:06:17.224Z,5.80
2022-11-12T18:10:30.053Z,5.87
2022-11-12T18:14:42.305Z,5.79
2022-11-12T18:18:58.333Z,5.91
2022-11-12T18:23:10.630Z,6.06
2022-11-12T18:27:22.926Z,5.94
2022-11-12T18:31:35.188Z,6.01
2022-11-12T18:35:47.477Z,6.12
2022-11-12T18:39:59.763Z,6.18
2022-11-12T18:44:12.109Z,6.18
2022-11-12T18:48:24.491Z,6.15
2022-11-12T18:52:37.169Z,6.15
2022-11-12T18:56:49.499Z,6.05
2022-11-12T19:01:06.526Z,5.99
2022-11-12T19:05:18.896Z,5.96
2022-11-12T19:09:31.131Z,5.94
2022-11-12T19:13:43.890Z,5.94
2022-11-12T19:17:56.512Z,5.72
2022-11-12T19:22:08.841Z,5.86
2022-11-12T19:26:22.325Z,6.12
2022-11-12T19:30:34.756Z,6.13
2022-11-12T19:34:47.192Z,6.04
2022-11-12T19:39:06.031Z,5.74
2022-11-12T19:43:18.322Z,5.56
2022-11-12T19:47:30.642Z,5.66
2022-11-12T19:51:42.967Z,5.84
2022-11-12T19:56:00.168Z,5.86
2022-11-12T20:00:13.276Z,5.88
2022-11-12T20:04:25.544Z,5.77
2022-11-12T20:08:38.497Z,5.82
2022-11-12T20:12:50.881Z,5.74
2022-11-12T20:17:03.241Z,5.75
2022-11-12T20:21:15.505Z,5.74
2022-11-12T20:25:27.764Z,5.66
2022-11-12T20:29:40.015Z,5.73
2022-11-12T20:33:57.870Z,5.71
2022-11-12T20:38:10.237Z,5.63
2022-11-12T20:42:22.545Z,5.71
2022-11-12T20:46:34.854Z,5.74
2022-11-12T20:51:16.855Z,5.80
2022-11-12T20:55:24.109Z,5.55
2022-11-12T20:59:41.840Z,5.72
2022-11-12T21:03:54.987Z,5.48
2022-11-12T21:08:07.825Z,5.25
2022-11-12T21:12:20.073Z,5.06
2022-11-12T21:16:32.365Z,5.31
2022-11-12T21:20:45.137Z,5.21
2022-11-12T21:24:57.435Z,5.32
2022-11-12T21:29:19.754Z,5.16
2022-11-12T21:33:32.097Z,4.98
2022-11-12T21:37:47.898Z,4.92
2022-11-12T21:42:00.181Z,4.96
2022-11-12T21:46:17.209Z,4.81
2022-11-12T21:50:29.469Z,4.64
2022-11-12T21:54:41.742Z,4.73
2022-11-12T21:59:02.968Z,4.89
2022-11-12T22:03:15.207Z,4.89
2022-11-12T22:07:27.460Z,4.96
2022-11-12T22:11:39.772Z,4.97
2022-11-12T22:15:52.004Z,5.21
2022-11-12T22:20:04.812Z,5.12
2022-11-12T22:24:18.294Z,5.26
2022-11-12T22:28:30.951Z,5.43
2022-11-12T22:32:43.366Z,5.26
2022-11-12T22:36:55.650Z,4.97
2022-11-12T22:41:25.616Z,4.91
2022-11-12T22:45:47.848Z,4.88
2022-11-12T22:50:00.097Z,4.72
2022-11-12T22:54:16.391Z,4.47
2022-11-12T22:58:28.969Z,4.45
2022-11-12T23:02:47.283Z,4.45
2022-11-12T23:06:59.926Z,4.64
2022-11-12T23:11:15.236Z,4.73
2022-11-12T23:15:31.413Z,4.44
2022-11-12T23:19:43.685Z,4.30
2022-11-12T23:24:00.644Z,4.53
2022-11-12T23:28:12.919Z,4.40
2022-11-12T23:32:25.431Z,4.29
2022-11-12T23:36:37.697Z,4.33
2022-11-12T23:41:00.273Z,4.21
2022-11-12T23:45:12.648Z,4.40
2022-11-12T23:49:24.916Z,4.41
2022-11-12T23:53:38.205Z,4.62
2022-11-12T23:57:55.697Z,4.59
